createdAt,value
2022-12-11T00:01:58.379Z,-4.34
2022-12-11T00:04:25.026Z,-4.45
2022-12-11T00:06:52.608Z,-4.54
2022-12-11T00:09:20.519Z,-4.51
2022-12-11T00:11:47.567Z,-4.47
2022-12-11T00:14:15.487Z,-4.49
2022-12-11T00:16:42.239Z,-4.47
2022-12-11T00:19:09.009Z,-4.33
2022-12-11T00:21:36.175Z,-4.18
2022-12-11T00:24:02.836Z,-3.97
2022-12-11T00:26:29.512Z,-3.97
2022-12-11T00:28:57.157Z,-3.81
2022-12-11T00:31:24.780Z,-3.85
2022-12-11T00:33:51.706Z,-3.79
2022-12-11T00:36:21.255Z,-3.92
2022-12-11T00:38:49.212Z,-3.93
2022-12-11T00:41:18.894Z,-3.78
2022-12-11T00:43:46.269Z,-3.70
2022-12-11T00:46:13.449Z,-3.71
2022-12-11T00:48:40.211Z,-3.73
2022-12-11T00:51:07.497Z,-3.74
2022-12-11T00:53:34.166Z,-3.74
2022-12-11T00:56:00.884Z,-3.80
2022-12-11T00:58:27.765Z,-3.94
2022-12-11T01:00:54.622Z,-4.02
2022-12-11T01:03:21.360Z,-4.18
2022-12-11T01:05:52.997Z,-4.23
2022-12-11T01:08:19.741Z,-4.27
2022-12-11T01:10:46.477Z,-4.35
2022-12-11T01:13:13.274Z,-4.48
2022-12-11T01:15:45.299Z,-4.63
2022-12-11T01:18:14.079Z,-4.82
2022-12-11T01:20:42.723Z,-5.29
2022-12-11T01:23:13.163Z,-5.42
2022-12-11T01:25:39.880Z,-5.42
2022-12-11T01:28:07.656Z,-5.62
2022-12-11T01:30:35.784Z,-5.60
2022-12-11T01:33:02.969Z,-5.46
2022-12-11T01:35:29.588Z,-5.57
2022-12-11T01:37:56.315Z,-5.55
2022-12-11T01:40:23.597Z,-5.58
2022-12-11T01:42:50.585Z,-5.71
2022-12-11T01:45:38.958Z,-5.66
2022-12-11T01:48:09.803Z,-5.68
2022-12-11T01:50:42.227Z,-5.81
2022-12-11T01:53:12.254Z,-5.91
2022-12-11T01:55:39.963Z,-6.11
2022-12-11T01:58:06.976Z,-6.27
2022-12-11T02:00:33.635Z,-6.37
2022-12-11T02:03:00.279Z,-6.41
2022-12-11T02:05:26.929Z,-6.46
2022-12-11T02:07:58.453Z,-6.48
2022-12-11T02:10:44.447Z,-6.61
2022-12-11T02:13:39.763Z,-6.59
2022-12-11T02:16:16.726Z,-6.62
2022-12-11T02:18:53.518Z,-6.77
2022-12-11T02:21:23.028Z,-6.72
2022-12-11T02:24:18.916Z,-6.75
2022-12-11T02:27:16.329Z,-6.84
2022-12-11T02:30:09.341Z,-6.86
2022-12-11T02:32:55.631Z,-6.91
2022-12-11T02:35:35.546Z,-7.04
2022-12-11T02:38:08.051Z,-7.07
2022-12-11T02:40:38.418Z,-7.05
2022-12-11T02:43:09.907Z,-7.11
2022-12-11T02:45:39.707Z,-7.10
2022-12-11T02:48:09.943Z,-7.07
2022-12-11T02:50:42.393Z,-7.00
2022-12-11T02:53:12.383Z,-7.00
2022-12-11T02:55:41.447Z,-6.95
2022-12-11T02:58:26.897Z,-6.81
2022-12-11T03:00:53.595Z,-6.68
2022-12-11T03:03:20.914Z,-6.56
2022-12-11T03:05:47.835Z,-6.37
2022-12-11T03:08:17.497Z,-6.29
2022-12-11T03:10:45.547Z,-6.12
2022-12-11T03:13:16.346Z,-5.98
2022-12-11T03:16:03.972Z,-5.94
2022-12-11T03:18:50.007Z,-6.01
2022-12-11T03:21:24.747Z,-5.77
2022-12-11T03:24:05.222Z,-5.65
2022-12-11T03:26:38.315Z,-5.49
2022-12-11T03:29:15.773Z,-5.33
2022-12-11T03:31:46.334Z,-5.23
2022-12-11T03:34:24.711Z,-5.16
2022-12-11T03:36:53.704Z,-5.45
2022-12-11T03:39:32.519Z,-5.45
2022-12-11T03:42:05.894Z,-5.40
2022-12-11T03:44:34.990Z,-5.30
2022-12-11T03:47:05.807Z,-5.17
2022-12-11T03:49:37.143Z,-5.16
2022-12-11T03:52:05.730Z,-5.29
2022-12-11T03:54:34.423Z,-5.34
2022-12-11T03:57:04.367Z,-5.41
2022-12-11T03:59:31.006Z,-5.67
2022-12-11T04:01:57.909Z,-5.77
2022-12-11T04:04:24.668Z,-5.83
2022-12-11T04:06:51.415Z,-5.84
2022-12-11T04:09:18.089Z,-5.91
2022-12-11T04:11:44.765Z,-5.98
2022-12-11T04:14:32.751Z,-6.20
2022-12-11T04:17:00.608Z,-6.44
2022-12-11T04:19:45.881Z,-6.54
2022-12-11T04:22:33.024Z,-6.56
2022-12-11T04:25:00.406Z,-6.68
2022-12-11T04:27:45.852Z,-6.92
2022-12-11T04:30:19.125Z,-7.17
2022-12-11T04:32:45.714Z,-7.26
2022-12-11T04:35:13.073Z,-7.09
2022-12-11T04:37:39.933Z,-7.03
2022-12-11T04:40:10.659Z,-7.00
2022-12-11T04:42:37.465Z,-7.03
2022-12-11T04:45:05.814Z,-7.05
2022-12-11T04:47:32.428Z,-6.98
2022-12-11T04:49:59.084Z,-6.90
2022-12-11T04:52:25.686Z,-7.00
2022-12-11T04:54:52.374Z,-6.87
2022-12-11T04:57:20.740Z,-6.78
2022-12-11T04:59:47.956Z,-6.71
2022-12-11T05:02:15.757Z,-6.65
2022-12-11T05:04:42.733Z,-6.55
2022-12-11T05:07:09.613Z,-6.52
2022-12-11T05:09:36.595Z,-6.41
2022-12-11T05:12:03.703Z,-6.33
2022-12-11T05:14:32.015Z,-6.28
2022-12-11T05:16:59.670Z,-6.26
2022-12-11T05:19:26.978Z,-6.16
2022-12-11T05:21:53.859Z,-6.26
2022-12-11T05:24:20.603Z,-6.16
2022-12-11T05:26:47.188Z,-6.16
2022-12-11T05:29:13.826Z,-6.11
2022-12-11T05:31:40.540Z,-6.10
2022-12-11T05:34:07.186Z,-6.12
2022-12-11T05:36:34.392Z,-6.19
2022-12-11T05:39:02.065Z,-6.30
2022-12-11T05:41:31.016Z,-6.50
2022-12-11T05:43:57.626Z,-6.75
2022-12-11T05:46:27.161Z,-7.03
2022-12-11T05:49:00.301Z,-7.19
2022-12-11T05:51:28.229Z,-7.31
2022-12-11T05:53:56.573Z,-7.50
2022-12-11T05:56:26.831Z,-7.57
2022-12-11T05:58:54.501Z,-7.56
2022-12-11T06:01:28.515Z,-7.67
2022-12-11T06:03:56.318Z,-7.87
2022-12-11T06:06:23.972Z,-7.92
2022-12-11T06:08:51.929Z,-7.93
2022-12-11T06:11:23.800Z,-7.96
2022-12-11T06:13:52.039Z,-8.08
2022-12-11T06:16:18.848Z,-8.24
2022-12-11T06:18:45.859Z,-8.25
2022-12-11T06:21:19.849Z,-8.28
2022-12-11T06:23:48.136Z,-8.25
2022-12-11T06:26:15.883Z,-8.28
2022-12-11T06:28:42.651Z,-8.38
2022-12-11T06:31:10.024Z,-8.45
2022-12-11T06:33:36.823Z,-8.46
2022-12-11T06:36:05.628Z,-8.49
2022-12-11T06:38:32.566Z,-8.50
2022-12-11T06:41:01.895Z,-8.49
2022-12-11T06:43:28.500Z,-8.48
2022-12-11T06:45:59.189Z,-8.50
2022-12-11T06:48:28.825Z,-8.50
2022-12-11T06:50:55.479Z,-8.49
2022-12-11T06:53:22.141Z,-8.51
2022-12-11T06:55:48.755Z,-8.60
2022-12-11T06:58:15.434Z,-8.66
2022-12-11T07:00:42.251Z,-8.56
2022-12-11T07:03:10.037Z,-8.55
2022-12-11T07:05:36.695Z,-8.55
2022-12-11T07:08:03.423Z,-8.53
2022-12-11T07:10:30.136Z,-8.55
2022-12-11T07:12:56.744Z,-8.59
2022-12-11T07:15:23.455Z,-8.46
2022-12-11T07:17:50.069Z,-8.39
2022-12-11T07:20:17.322Z,-8.27
2022-12-11T07:22:46.705Z,-8.14
2022-12-11T07:25:14.695Z,-8.09
2022-12-11T07:27:41.915Z,-8.05
2022-12-11T07:30:09.538Z,-8.27
2022-12-11T07:32:36.406Z,-8.33
2022-12-11T07:35:03.741Z,-8.14
2022-12-11T07:37:30.342Z,-7.86
2022-12-11T07:39:57.022Z,-7.64
2022-12-11T07:42:23.742Z,-7.58
2022-12-11T07:44:50.451Z,-7.50
2022-12-11T07:47:17.066Z,-7.30
2022-12-11T07:49:43.661Z,-7.20
2022-12-11T07:52:10.458Z,-7.20
2022-12-11T07:54:37.192Z,-7.03
2022-12-11T07:57:03.852Z,-7.00
2022-12-11T07:59:31.002Z,-6.70
2022-12-11T08:01:57.784Z,-6.59
2022-12-11T08:04:24.503Z,-6.54
2022-12-11T08:06:51.129Z,-6.27
2022-12-11T08:09:21.239Z,-6.16
2022-12-11T08:11:50.484Z,-6.12
2022-12-11T08:14:18.004Z,-6.20
2022-12-11T08:16:44.821Z,-5.99
2022-12-11T08:19:12.383Z,-5.22
2022-12-11T08:21:40.083Z,-4.48
2022-12-11T08:24:07.931Z,-2.88
2022-12-11T08:26:34.817Z,-1.57
2022-12-11T08:29:02.581Z,-1.12
2022-12-11T08:31:29.754Z,0.40
2022-12-11T08:33:56.849Z,0.58
2022-12-11T08:36:23.990Z,1.63
2022-12-11T08:38:51.785Z,1.58
2022-12-11T08:41:20.826Z,1.39
2022-12-11T08:43:48.174Z,3.69
2022-12-11T08:46:15.346Z,3.92
2022-12-11T08:48:43.211Z,4.23
2022-12-11T08:51:15.756Z,2.14
2022-12-11T08:53:43.012Z,3.36
2022-12-11T08:56:18.011Z,4.99
2022-12-11T08:58:45.792Z,4.19
2022-12-11T09:01:15.723Z,2.81
2022-12-11T09:03:42.638Z,3.42
2022-12-11T09:06:12.327Z,2.89
2022-12-11T09:08:38.966Z,1.29
2022-12-11T09:11:08.207Z,1.80
2022-12-11T09:13:35.330Z,1.16
2022-12-11T09:16:05.550Z,1.76
2022-12-11T09:18:32.539Z,3.75
2022-12-11T09:21:01.243Z,4.02
2022-12-11T09:23:27.957Z,5.66
2022-12-11T09:25:54.641Z,3.82
2022-12-11T09:28:21.996Z,7.83
2022-12-11T09:30:48.753Z,5.38
2022-12-11T09:33:15.517Z,6.22
2022-12-11T09:35:42.499Z,8.41
2022-12-11T09:38:09.739Z,10.20
2022-12-11T09:40:43.298Z,9.18
2022-12-11T09:43:26.965Z,9.31
2022-12-11T09:45:55.197Z,10.46
2022-12-11T09:48:26.104Z,6.44
2022-12-11T09:50:54.999Z,6.12
2022-12-11T09:53:34.459Z,5.60
2022-12-11T09:56:15.817Z,7.35
2022-12-11T09:59:14.604Z,7.00
2022-12-11T10:01:59.135Z,7.29
2022-12-11T10:05:04.848Z,8.13
2022-12-11T10:07:45.407Z,11.38
2022-12-11T10:10:40.179Z,11.21
2022-12-11T10:13:34.812Z,7.59
2022-12-11T10:16:17.807Z,6.08
2022-12-11T10:18:44.712Z,6.79
2022-12-11T10:21:14.255Z,8.15
2022-12-11T10:23:48.788Z,6.70
2022-12-11T10:26:21.264Z,6.67
2022-12-11T10:28:47.990Z,5.58
2022-12-11T10:31:38.148Z,2.47
2022-12-11T10:34:26.103Z,6.57
2022-12-11T10:37:00.194Z,7.31
2022-12-11T10:39:27.915Z,5.18
2022-12-11T10:41:56.074Z,6.58
2022-12-11T10:44:28.150Z,5.45
2022-12-11T10:47:15.294Z,6.72
2022-12-11T10:49:59.900Z,7.96
2022-12-11T10:52:35.075Z,7.35
2022-12-11T10:55:06.992Z,7.14
2022-12-11T10:57:39.189Z,8.51
2022-12-11T11:00:08.887Z,12.11
2022-12-11T11:02:38.619Z,10.36
2022-12-11T11:05:34.606Z,10.38
2022-12-11T11:08:13.798Z,8.33
2022-12-11T11:11:21.887Z,10.63
2022-12-11T11:13:48.733Z,11.86
2022-12-11T11:16:20.863Z,10.85
2022-12-11T11:18:55.772Z,11.80
2022-12-11T11:21:26.278Z,12.42
2022-12-11T11:23:54.251Z,11.42
2022-12-11T11:26:38.319Z,12.94
2022-12-11T11:29:27.516Z,13.02
2022-12-11T11:31:54.308Z,13.58
2022-12-11T11:34:22.295Z,9.84
2022-12-11T11:36:57.802Z,13.03
2022-12-11T11:39:41.382Z,14.19
2022-12-11T11:42:27.801Z,12.82
2022-12-11T11:45:10.789Z,13.09
2022-12-11T11:47:45.251Z,12.54
2022-12-11T11:50:19.034Z,11.96
2022-12-11T11:52:51.863Z,10.61
2022-12-11T11:55:28.379Z,11.64
2022-12-11T11:58:13.745Z,12.61
2022-12-11T12:00:40.535Z,13.10
2022-12-11T12:03:15.080Z,12.43
2022-12-11T12:06:04.998Z,12.26
2022-12-11T12:08:48.833Z,10.55
2022-12-11T12:11:30.798Z,9.78
2022-12-11T12:14:03.426Z,10.21
2022-12-11T12:16:53.201Z,8.91
2022-12-11T12:19:35.507Z,6.26
2022-12-11T12:22:31.373Z,3.45
2022-12-11T12:25:00.999Z,2.13
2022-12-11T12:30:23.025Z,2.35
2022-12-11T12:33:05.328Z,2.27
2022-12-11T12:35:36.419Z,2.70
2022-12-11T12:38:09.454Z,2.45
2022-12-11T12:41:14.248Z,2.34
2022-12-11T12:43:56.112Z,2.14
2022-12-11T12:46:50.799Z,1.70
2022-12-11T12:49:29.479Z,1.23
2022-12-11T12:51:57.819Z,0.94
2022-12-11T12:54:28.504Z,0.60
2022-12-11T12:56:56.628Z,0.42
2022-12-11T12:59:28.690Z,0.42
2022-12-11T13:02:06.400Z,0.45
2022-12-11T13:07:32.669Z,0.67
2022-12-11T13:10:25.205Z,0.85
2022-12-11T13:12:52.401Z,0.96
2022-12-11T13:15:32.994Z,0.71
2022-12-11T13:18:01.678Z,1.33
2022-12-11T13:20:32.099Z,1.17
2022-12-11T13:23:18.406Z,1.25
2022-12-11T13:25:57.268Z,0.53
2022-12-11T13:28:28.278Z,1.36
2022-12-11T13:31:02.203Z,1.33
2022-12-11T13:33:30.656Z,1.25
2022-12-11T13:36:15.775Z,1.45
2022-12-11T13:38:51.495Z,1.15
2022-12-11T13:41:20.390Z,1.76
2022-12-11T13:43:49.781Z,1.29
2022-12-11T13:46:25.017Z,0.46
2022-12-11T13:49:00.790Z,0.69
2022-12-11T13:51:31.519Z,0.83
2022-12-11T13:54:17.406Z,0.65
2022-12-11T13:57:03.365Z,0.67
2022-12-11T13:59:37.372Z,0.84
2022-12-11T14:02:21.070Z,0.35
2022-12-11T14:04:50.607Z,-0.59
2022-12-11T14:07:23.927Z,-0.19
2022-12-11T14:09:51.415Z,0.13
2022-12-11T14:12:21.497Z,-0.38
2022-12-11T14:14:54.906Z,-0.33
2022-12-11T14:17:28.259Z,-0.61
2022-12-11T14:19:58.112Z,-0.77
2022-12-11T14:22:29.921Z,-0.82
2022-12-11T14:24:59.080Z,-0.92
2022-12-11T14:27:27.726Z,-0.90
2022-12-11T14:29:55.071Z,-1.27
2022-12-11T14:32:43.283Z,-1.77
2022-12-11T14:35:24.221Z,-1.60
2022-12-11T14:37:52.347Z,-1.61
2022-12-11T14:40:23.899Z,-1.51
2022-12-11T14:43:00.134Z,-1.65
2022-12-11T14:45:38.598Z,-1.76
2022-12-11T14:48:20.889Z,-2.14
2022-12-11T14:51:01.163Z,-2.35
2022-12-11T14:53:40.257Z,-2.36
2022-12-11T14:56:09.794Z,-2.47
2022-12-11T14:58:46.847Z,-2.76
2022-12-11T15:01:25.585Z,-2.66
2022-12-11T15:04:14.641Z,-2.88
2022-12-11T15:06:49.124Z,-3.00
2022-12-11T15:09:34.015Z,-3.19
2022-12-11T15:12:11.323Z,-3.55
2022-12-11T15:14:50.341Z,-3.44
2022-12-11T15:17:18.794Z,-3.48
2022-12-11T15:19:51.692Z,-3.55
2022-12-11T15:22:23.800Z,-3.69
2022-12-11T15:24:53.258Z,-3.83
2022-12-11T15:27:25.201Z,-4.03
2022-12-11T15:29:52.027Z,-4.10
2022-12-11T15:32:21.786Z,-4.22
2022-12-11T15:34:51.470Z,-4.23
2022-12-11T15:37:22.851Z,-4.26
2022-12-11T15:39:50.233Z,-4.22
2022-12-11T15:42:41.739Z,-4.42
2022-12-11T15:45:16.601Z,-4.34
2022-12-11T15:47:43.969Z,-4.25
2022-12-11T15:50:22.962Z,-4.25
2022-12-11T15:52:51.489Z,-4.49
2022-12-11T15:55:19.598Z,-4.49
2022-12-11T15:57:51.344Z,-4.55
2022-12-11T16:00:19.386Z,-4.62
2022-12-11T16:02:46.653Z,-4.70
2022-12-11T16:05:14.491Z,-4.69
2022-12-11T16:07:41.770Z,-4.80
2022-12-11T16:10:14.506Z,-4.95
2022-12-11T16:12:42.005Z,-5.08
2022-12-11T16:15:09.788Z,-5.15
2022-12-11T16:17:36.865Z,-5.17
2022-12-11T16:20:04.056Z,-5.17
2022-12-11T16:22:31.142Z,-5.28
2022-12-11T16:24:57.767Z,-5.32
2022-12-11T16:27:24.458Z,-5.41
2022-12-11T16:29:51.352Z,-5.52
2022-12-11T16:32:18.639Z,-5.54
2022-12-11T16:34:45.294Z,-5.78
2022-12-11T16:37:12.951Z,-5.80
2022-12-11T16:39:39.852Z,-5.80
2022-12-11T16:42:07.152Z,-5.88
2022-12-11T16:44:33.987Z,-6.00
2022-12-11T16:47:00.725Z,-6.36
2022-12-11T16:49:27.373Z,-6.25
2022-12-11T16:51:54.044Z,-6.20
2022-12-11T16:54:20.726Z,-6.28
2022-12-11T16:56:47.442Z,-6.38
2022-12-11T16:59:14.094Z,-6.61
2022-12-11T17:01:41.144Z,-6.82
2022-12-11T17:04:07.925Z,-6.89
2022-12-11T17:06:34.702Z,-6.90
2022-12-11T17:09:01.515Z,-6.83
2022-12-11T17:11:28.323Z,-6.75
2022-12-11T17:13:56.665Z,-6.76
2022-12-11T17:16:26.139Z,-6.89
2022-12-11T17:18:53.189Z,-6.87
2022-12-11T17:21:22.310Z,-6.91
2022-12-11T17:23:49.919Z,-7.15
2022-12-11T17:26:17.186Z,-7.01
2022-12-11T17:28:44.407Z,-7.11
2022-12-11T17:31:17.341Z,-7.08
2022-12-11T17:33:45.178Z,-7.03
2022-12-11T17:36:14.483Z,-7.22
2022-12-11T17:38:41.521Z,-7.29
2022-12-11T17:41:13.119Z,-7.39
2022-12-11T17:43:43.568Z,-7.37
2022-12-11T17:46:11.641Z,-7.74
2022-12-11T17:48:38.699Z,-8.15
2022-12-11T17:51:07.808Z,-7.87
2022-12-11T17:53:36.299Z,-7.82
2022-12-11T17:56:06.455Z,-7.81
2022-12-11T17:58:34.083Z,-7.99
2022-12-11T18:01:05.776Z,-8.07
2022-12-11T18:03:32.504Z,-7.93
2022-12-11T18:06:04.833Z,-7.97
2022-12-11T18:08:31.991Z,-7.96
2022-12-11T18:11:09.591Z,-7.96
2022-12-11T18:13:36.409Z,-8.05
2022-12-11T18:16:06.038Z,-8.10
2022-12-11T18:18:33.251Z,-8.20
2022-12-11T18:21:00.367Z,-8.17
2022-12-11T18:23:27.505Z,-8.20
2022-12-11T18:25:54.692Z,-8.18
2022-12-11T18:28:21.506Z,-8.19
2022-12-11T18:30:48.316Z,-8.37
2022-12-11T18:33:15.109Z,-8.49
2022-12-11T18:35:42.148Z,-8.46
2022-12-11T18:38:10.470Z,-8.67
2022-12-11T18:40:38.435Z,-8.57
2022-12-11T18:43:05.105Z,-8.51
2022-12-11T18:45:32.196Z,-8.58
2022-12-11T18:47:59.100Z,-8.47
2022-12-11T18:50:25.918Z,-8.44
2022-12-11T18:52:54.623Z,-8.55
2022-12-11T18:55:21.714Z,-8.51
2022-12-11T18:57:48.651Z,-8.54
2022-12-11T19:00:16.429Z,-8.62
2022-12-11T19:02:43.166Z,-8.65
2022-12-11T19:05:10.792Z,-8.71
2022-12-11T19:07:37.893Z,-8.76
2022-12-11T19:10:05.523Z,-8.82
2022-12-11T19:12:32.167Z,-8.85
2022-12-11T19:14:58.931Z,-8.97
2022-12-11T19:17:25.649Z,-9.02
2022-12-11T19:19:52.368Z,-9.06
2022-12-11T19:22:19.064Z,-9.13
2022-12-11T19:24:45.776Z,-9.10
2022-12-11T19:27:13.840Z,-9.09
2022-12-11T19:29:41.315Z,-9.09
2022-12-11T19:32:08.184Z,-9.22
2022-12-11T19:34:34.860Z,-9.19
2022-12-11T19:37:01.508Z,-9.19
2022-12-11T19:39:28.179Z,-9.26
2022-12-11T19:41:54.866Z,-9.27
2022-12-11T19:44:21.582Z,-9.33
2022-12-11T19:46:48.363Z,-9.38
2022-12-11T19:49:15.470Z,-9.56
2022-12-11T19:51:42.270Z,-9.43
2022-12-11T19:54:13.039Z,-9.39
2022-12-11T19:56:39.786Z,-9.47
2022-12-11T19:59:08.939Z,-9.46
2022-12-11T20:01:37.592Z,-9.48
2022-12-11T20:04:15.016Z,-9.55
2022-12-11T20:06:43.569Z,-9.76
2022-12-11T20:09:12.014Z,-9.67
2022-12-11T20:11:40.962Z,-9.72
2022-12-11T20:14:07.862Z,-9.74
2022-12-11T20:17:02.147Z,-9.83
2022-12-11T20:19:21.256Z,-9.81
2022-12-11T20:21:48.107Z,-10.06
2022-12-11T20:24:14.803Z,-9.88
2022-12-11T20:26:41.521Z,-10.14
2022-12-11T20:29:08.468Z,-10.17
2022-12-11T20:31:36.791Z,-10.02
2022-12-11T20:34:04.549Z,-9.93
2022-12-11T20:36:31.696Z,-9.90
2022-12-11T20:38:58.937Z,-10.18
2022-12-11T20:41:26.684Z,-10.29
2022-12-11T20:43:54.216Z,-10.20
2022-12-11T20:46:25.101Z,-10.14
2022-12-11T20:48:53.136Z,-10.12
2022-12-11T20:51:25.685Z,-10.07
2022-12-11T20:54:01.253Z,-10.13
2022-12-11T20:56:30.903Z,-10.08
2022-12-11T20:58:59.134Z,-10.15
2022-12-11T21:01:28.428Z,-10.24
2022-12-11T21:03:55.138Z,-10.35
2022-12-11T21:06:25.851Z,-10.51
2022-12-11T21:08:53.570Z,-10.39
2022-12-11T21:11:20.978Z,-10.31
2022-12-11T21:13:47.733Z,-10.27
2022-12-11T21:16:14.570Z,-10.26
2022-12-11T21:18:41.621Z,-10.30
2022-12-11T21:21:08.368Z,-10.31
2022-12-11T21:23:35.422Z,-10.37
2022-12-11T21:26:03.225Z,-10.40
2022-12-11T21:28:35.246Z,-10.41
2022-12-11T21:31:05.454Z,-10.45
2022-12-11T21:33:32.155Z,-10.62
2022-12-11T21:36:00.320Z,-10.61
2022-12-11T21:38:27.896Z,-10.72
2022-12-11T21:40:55.595Z,-10.73
2022-12-11T21:43:22.342Z,-10.66
2022-12-11T21:46:04.904Z,-10.71
2022-12-11T21:48:31.947Z,-10.64
2022-12-11T21:51:06.760Z,-10.77
2022-12-11T21:53:33.569Z,-10.95
2022-12-11T21:56:00.265Z,-10.84
2022-12-11T21:58:26.912Z,-10.85
2022-12-11T22:00:53.606Z,-10.93
2022-12-11T22:03:20.449Z,-10.95
2022-12-11T22:05:47.074Z,-11.01
2022-12-11T22:08:13.795Z,-11.14
2022-12-11T22:10:40.420Z,-11.13
2022-12-11T22:13:07.077Z,-11.01
2022-12-11T22:15:33.769Z,-10.96
2022-12-11T22:18:00.394Z,-11.03
2022-12-11T22:20:27.061Z,-11.10
2022-12-11T22:22:53.705Z,-11.07
2022-12-11T22:25:20.361Z,-11.09
2022-12-11T22:27:47.026Z,-11.11
2022-12-11T22:30:14.057Z,-11.02
2022-12-11T22:32:40.715Z,-10.98
2022-12-11T22:35:07.665Z,-10.99
2022-12-11T22:37:34.290Z,-11.03
2022-12-11T22:40:01.195Z,-11.19
2022-12-11T22:42:27.881Z,-11.29
2022-12-11T22:44:54.508Z,-11.20
2022-12-11T22:47:21.159Z,-11.18
2022-12-11T22:49:47.927Z,-11.16
2022-12-11T22:52:14.561Z,-11.27
2022-12-11T22:54:42.492Z,-11.29
2022-12-11T22:57:09.381Z,-11.27
2022-12-11T22:59:36.474Z,-11.35
2022-12-11T23:02:03.382Z,-11.46
2022-12-11T23:04:30.695Z,-11.31
2022-12-11T23:06:57.684Z,-11.42
2022-12-11T23:09:24.534Z,-11.44
2022-12-11T23:11:51.707Z,-11.47
2022-12-11T23:14:19.030Z,-11.48
2022-12-11T23:16:45.723Z,-11.66
2022-12-11T23:19:13.013Z,-11.57
2022-12-11T23:21:40.366Z,-11.53
2022-12-11T23:24:07.611Z,-11.64
2022-12-11T23:26:34.422Z,-11.61
2022-12-11T23:29:02.013Z,-11.54
2022-12-11T23:31:30.092Z,-11.50
2022-12-11T23:33:57.191Z,-11.59
2022-12-11T23:36:25.293Z,-11.52
2022-12-11T23:38:55.024Z,-11.53
2022-12-11T23:41:22.151Z,-11.55
2022-12-11T23:43:48.818Z,-11.55
2022-12-11T23:46:21.545Z,-11.51
2022-12-11T23:48:48.871Z,-11.54
2022-12-11T23:51:17.851Z,-11.54
2022-12-11T23:53:45.077Z,-11.74
2022-12-11T23:56:16.141Z,-11.79
2022-12-11T23:58:42.820Z,-11.99
